sensor_id;sensor_type;location;lat;lon;timestamp;pressure;altitude;pressure_sealevel;temperature;humidity
54038;BME280;39954;48.844;9.726;2023-04-05T00:00:33;96596.94;;;-4.26;100.00
54038;BME280;39954;48.844;9.726;2023-04-05T00:01:35;96596.94;;;-4.28;100.00
54038;BME280;39954;48.844;9.726;2023-04-05T00:02:40;96591.84;;;-4.31;100.00
54038;BME280;39954;48.844;9.726;2023-04-05T00:03:45;96597.72;;;-4.35;100.00
54038;BME280;39954;48.844;9.726;2023-04-05T00:04:48;96597.69;;;-4.39;100.00
54038;BME280;39954;48.844;9.726;2023-04-05T00:06:01;96595.13;;;-4.42;100.00
54038;BME280;39954;48.844;9.726;2023-04-05T00:07:06;96597.66;;;-4.42;100.00
54038;BME280;39954;48.844;9.726;2023-04-05T00:08:13;96600.13;;;-4.47;100.00
54038;BME280;39954;48.844;9.726;2023-04-05T00:09:24;96600.13;;;-4.45;100.00
54038;BME280;39954;48.844;9.726;2023-04-05T00:10:30;96595.91;;;-4.46;100.00
54038;BME280;39954;48.844;9.726;2023-04-05T00:11:32;96599.28;;;-4.46;100.00
54038;BME280;39954;48.844;9.726;2023-04-05T00:12:37;96596.72;;;-4.49;100.00
54038;BME280;39954;48.844;9.726;2023-04-05T00:13:39;96595.06;;;-4.47;100.00
54038;BME280;39954;48.844;9.726;2023-04-05T00:14:44;96593.38;;;-4.48;100.00
54038;BME280;39954;48.844;9.726;2023-04-05T00:15:48;96589.16;;;-4.47;100.00
54038;BME280;39954;48.844;9.726;2023-04-05T00:16:53;96594.22;;;-4.46;100.00
54038;BME280;39954;48.844;9.726;2023-04-05T00:17:55;96584.91;;;-4.45;100.00
54038;BME280;39954;48.844;9.726;2023-04-05T00:19:01;96587.50;;;-4.42;100.00
54038;BME280;39954;48.844;9.726;2023-04-05T00:20:03;96588.38;;;-4.39;100.00
54038;BME280;39954;48.844;9.726;2023-04-05T00:21:11;96590.09;;;-4.35;100.00
54038;BME280;39954;48.844;9.726;2023-04-05T00:22:15;96580.78;;;-4.34;100.00
54038;BME280;39954;48.844;9.726;2023-04-05T00:23:20;96590.06;;;-4.38;100.00
54038;BME280;39954;48.844;9.726;2023-04-05T00:24:23;96591.72;;;-4.40;100.00
54038;BME280;39954;48.844;9.726;2023-04-05T00:25:30;96583.25;;;-4.45;100.00
54038;BME280;39954;48.844;9.726;2023-04-05T00:26:32;96581.53;;;-4.46;100.00
54038;BME280;39954;48.844;9.726;2023-04-05T00:27:37;96582.38;;;-4.47;100.00
54038;BME280;39954;48.844;9.726;2023-04-05T00:28:39;96581.50;;;-4.49;100.00
54038;BME280;39954;48.844;9.726;2023-04-05T00:29:44;96579.81;;;-4.50;100.00
54038;BME280;39954;48.844;9.726;2023-04-05T00:30:46;96583.16;;;-4.53;100.00
54038;BME280;39954;48.844;9.726;2023-04-05T00:31:50;96578.88;;;-4.57;100.00
54038;BME280;39954;48.844;9.726;2023-04-05T00:32:53;96573.81;;;-4.57;100.00
54038;BME280;39954;48.844;9.726;2023-04-05T00:33:58;96578.88;;;-4.58;100.00
54038;BME280;39954;48.844;9.726;2023-04-05T00:35:00;96577.22;;;-4.56;100.00
54038;BME280;39954;48.844;9.726;2023-04-05T00:36:11;96568.75;;;-4.55;100.00
54038;BME280;39954;48.844;9.726;2023-04-05T00:37:14;96567.94;;;-4.51;100.00
54038;BME280;39954;48.844;9.726;2023-04-05T00:38:18;96567.09;;;-4.53;100.00
54038;BME280;39954;48.844;9.726;2023-04-05T00:39:20;96564.56;;;-4.53;100.00
54038;BME280;39954;48.844;9.726;2023-04-05T00:40:25;96572.16;;;-4.55;100.00
54038;BME280;39954;48.844;9.726;2023-04-05T00:41:28;96569.63;;;-4.56;100.00
54038;BME280;39954;48.844;9.726;2023-04-05T00:42:32;96566.22;;;-4.55;100.00
54038;BME280;39954;48.844;9.726;2023-04-05T00:43:35;96563.69;;;-4.55;100.00
54038;BME280;39954;48.844;9.726;2023-04-05T00:44:39;96571.31;;;-4.55;100.00
54038;BME280;39954;48.844;9.726;2023-04-05T00:45:41;96561.16;;;-4.55;100.00
54038;BME280;39954;48.844;9.726;2023-04-05T00:46:46;96563.66;;;-4.58;100.00
54038;BME280;39954;48.844;9.726;2023-04-05T00:47:48;96558.56;;;-4.60;100.00
54038;BME280;39954;48.844;9.726;2023-04-05T00:48:53;96562.81;;;-4.57;100.00
54038;BME280;39954;48.844;9.726;2023-04-05T00:49:55;96559.44;;;-4.59;100.00
54038;BME280;39954;48.844;9.726;2023-04-05T00:51:00;96560.31;;;-4.56;100.00
54038;BME280;39954;48.844;9.726;2023-04-05T00:52:05;96561.97;;;-4.58;100.00
54038;BME280;39954;48.844;9.726;2023-04-05T00:53:10;96552.66;;;-4.60;100.00
54038;BME280;39954;48.844;9.726;2023-04-05T00:54:13;96555.19;;;-4.60;100.00
54038;BME280;39954;48.844;9.726;2023-04-05T00:55:18;96557.72;;;-4.62;100.00
54038;BME280;39954;48.844;9.726;2023-04-05T00:56:21;96554.38;;;-4.59;100.00
54038;BME280;39954;48.844;9.726;2023-04-05T00:57:26;96553.50;;;-4.61;100.00
54038;BME280;39954;48.844;9.726;2023-04-05T00:58:30;96553.47;;;-4.64;100.00
54038;BME280;39954;48.844;9.726;2023-04-05T00:59:35;96550.94;;;-4.64;100.00
54038;BME280;39954;48.844;9.726;2023-04-05T01:00:37;96551.81;;;-4.61;100.00
54038;BME280;39954;48.844;9.726;2023-04-05T01:01:43;96548.38;;;-4.63;100.00
54038;BME280;39954;48.844;9.726;2023-04-05T01:02:59;96550.94;;;-4.64;100.00
54038;BME280;39954;48.844;9.726;2023-04-05T01:04:05;96547.56;;;-4.62;100.00
54038;BME280;39954;48.844;9.726;2023-04-05T01:05:16;96548.41;;;-4.61;100.00
54038;BME280;39954;48.844;9.726;2023-04-05T01:06:31;96544.16;;;-4.62;100.00
54038;BME280;39954;48.844;9.726;2023-04-05T01:07:44;96545.06;;;-4.57;100.00
54038;BME280;39954;48.844;9.726;2023-04-05T01:08:57;96545.91;;;-4.58;100.00
54038;BME280;39954;48.844;9.726;2023-04-05T01:10:01;96538.31;;;-4.58;100.00
54038;BME280;39954;48.844;9.726;2023-04-05T01:11:07;96534.91;;;-4.57;100.00
54038;BME280;39954;48.844;9.726;2023-04-05T01:12:14;96541.72;;;-4.56;100.00
54038;BME280;39954;48.844;9.726;2023-04-05T01:13:20;96534.09;;;-4.56;100.00
54038;BME280;39954;48.844;9.726;2023-04-05T01:14:23;96533.28;;;-4.54;100.00
54038;BME280;39954;48.844;9.726;2023-04-05T01:15:28;96532.44;;;-4.51;100.00
54038;BME280;39954;48.844;9.726;2023-04-05T01:16:30;96532.44;;;-4.53;100.00
54038;BME280;39954;48.844;9.726;2023-04-05T01:17:35;96529.03;;;-4.56;100.00
54038;BME280;39954;48.844;9.726;2023-04-05T01:18:40;96528.13;;;-4.60;100.00
54038;BME280;39954;48.844;9.726;2023-04-05T01:19:48;96523.91;;;-4.61;100.00
54038;BME280;39954;48.844;9.726;2023-04-05T01:21:00;96533.19;;;-4.61;100.00
54038;BME280;39954;48.844;9.726;2023-04-05T01:22:36;96523.03;;;-4.63;100.00
54038;BME280;39954;48.844;9.726;2023-04-05T01:23:48;96523.06;;;-4.61;100.00
54038;BME280;39954;48.844;9.726;2023-04-05T01:26:45;96517.16;;;-4.57;100.00
54038;BME280;39954;48.844;9.726;2023-04-05T01:31:05;96519.56;;;-4.71;100.00
54038;BME280;39954;48.844;9.726;2023-04-05T01:32:14;96512.84;;;-4.69;100.00
54038;BME280;39954;48.844;9.726;2023-04-05T01:33:24;96514.53;;;-4.66;100.00
54038;BME280;39954;48.844;9.726;2023-04-05T01:34:33;96515.41;;;-4.64;100.00
54038;BME280;39954;48.844;9.726;2023-04-05T01:35:45;96512.84;;;-4.67;100.00
54038;BME280;39954;48.844;9.726;2023-04-05T01:36:53;96518.75;;;-4.70;100.00
54038;BME280;39954;48.844;9.726;2023-04-05T01:38:02;96511.09;;;-4.75;100.00
54038;BME280;39954;48.844;9.726;2023-04-05T01:39:07;96511.94;;;-4.76;100.00
54038;BME280;39954;48.844;9.726;2023-04-05T01:40:12;96511.03;;;-4.79;100.00
54038;BME280;39954;48.844;9.726;2023-04-05T01:41:15;96520.34;;;-4.78;100.00
54038;BME280;39954;48.844;9.726;2023-04-05T01:42:22;96507.63;;;-4.83;100.00
54038;BME280;39954;48.844;9.726;2023-04-05T01:43:25;96507.66;;;-4.80;100.00
54038;BME280;39954;48.844;9.726;2023-04-05T01:44:32;96511.03;;;-4.81;100.00
54038;BME280;39954;48.844;9.726;2023-04-05T01:45:34;96505.09;;;-4.83;100.00
54038;BME280;39954;48.844;9.726;2023-04-05T01:46:38;96506.75;;;-4.85;100.00
54038;BME280;39954;48.844;9.726;2023-04-05T01:47:41;96508.41;;;-4.90;100.00
54038;BME280;39954;48.844;9.726;2023-04-05T01:48:46;96503.28;;;-4.93;100.00
54038;BME280;39954;48.844;9.726;2023-04-05T01:49:48;96507.50;;;-4.95;100.00
54038;BME280;39954;48.844;9.726;2023-04-05T01:50:53;96511.72;;;-4.97;100.00
54038;BME280;39954;48.844;9.726;2023-04-05T01:51:55;96508.31;;;-4.99;100.00
54038;BME280;39954;48.844;9.726;2023-04-05T01:53:00;96503.19;;;-5.02;100.00
54038;BME280;39954;48.844;9.726;2023-04-05T01:54:02;96507.47;;;-5.01;100.00
54038;BME280;39954;48.844;9.726;2023-04-05T01:55:07;96503.19;;;-5.02;100.00
54038;BME280;39954;48.844;9.726;2023-04-05T01:56:09;96503.19;;;-5.02;100.00
54038;BME280;39954;48.844;9.726;2023-04-05T01:57:14;96498.97;;;-5.03;100.00
54038;BME280;39954;48.844;9.726;2023-04-05T01:58:16;96499.78;;;-5.04;100.00
54038;BME280;39954;48.844;9.726;2023-04-05T01:59:21;96505.72;;;-5.05;100.00
54038;BME280;39954;48.844;9.726;2023-04-05T02:00:26;96498.09;;;-5.07;100.00
54038;BME280;39954;48.844;9.726;2023-04-05T02:01:31;96488.81;;;-5.06;100.00
54038;BME280;39954;48.844;9.726;2023-04-05T02:02:33;96491.34;;;-5.06;100.00
54038;BME280;39954;48.844;9.726;2023-04-05T02:03:38;96494.66;;;-5.10;100.00
54038;BME280;39954;48.844;9.726;2023-04-05T02:04:40;96492.94;;;-5.14;100.00
54038;BME280;39954;48.844;9.726;2023-04-05T02:05:45;96495.41;;;-5.19;100.00
54038;BME280;39954;48.844;9.726;2023-04-05T02:06:47;96487.84;;;-5.18;100.00
54038;BME280;39954;48.844;9.726;2023-04-05T02:07:52;96486.13;;;-5.19;100.00
54038;BME280;39954;48.844;9.726;2023-04-05T02:08:54;96491.19;;;-5.19;100.00
54038;BME280;39954;48.844;9.726;2023-04-05T02:09:58;96496.19;;;-5.25;100.00
54038;BME280;39954;48.844;9.726;2023-04-05T02:11:01;96491.97;;;-5.24;100.00
54038;BME280;39954;48.844;9.726;2023-04-05T02:12:05;96491.13;;;-5.25;100.00
54038;BME280;39954;48.844;9.726;2023-04-05T02:13:07;96501.28;;;-5.25;100.00
54038;BME280;39954;48.844;9.726;2023-04-05T02:14:14;96499.53;;;-5.29;100.00
54038;BME280;39954;48.844;9.726;2023-04-05T02:15:17;96502.09;;;-5.27;100.00
54038;BME280;39954;48.844;9.726;2023-04-05T02:16:24;96494.50;;;-5.26;100.00
54038;BME280;39954;48.844;9.726;2023-04-05T02:17:27;96495.31;;;-5.27;100.00
54038;BME280;39954;48.844;9.726;2023-04-05T02:18:35;96492.72;;;-5.33;100.00
54038;BME280;39954;48.844;9.726;2023-04-05T02:19:39;96498.59;;;-5.37;100.00
54038;BME280;39954;48.844;9.726;2023-04-05T02:20:48;96496.88;;;-5.40;100.00
54038;BME280;39954;48.844;9.726;2023-04-05T02:21:50;96494.34;;;-5.40;100.00
54038;BME280;39954;48.844;9.726;2023-04-05T02:22:57;96490.97;;;-5.40;100.00
54038;BME280;39954;48.844;9.726;2023-04-05T02:23:59;96496.03;;;-5.40;100.00
54038;BME280;39954;48.844;9.726;2023-04-05T02:25:04;96495.19;;;-5.39;100.00
54038;BME280;39954;48.844;9.726;2023-04-05T02:26:07;96493.50;;;-5.40;100.00
54038;BME280;39954;48.844;9.726;2023-04-05T02:27:11;96490.97;;;-5.40;100.00
54038;BME280;39954;48.844;9.726;2023-04-05T02:28:13;96488.41;;;-5.42;100.00
54038;BME280;39954;48.844;9.726;2023-04-05T02:29:18;96485.88;;;-5.43;100.00
54038;BME280;39954;48.844;9.726;2023-04-05T02:30:20;96490.94;;;-5.42;100.00
54038;BME280;39954;48.844;9.726;2023-04-05T02:31:27;96491.78;;;-5.43;100.00
54038;BME280;39954;48.844;9.726;2023-04-05T02:32:29;96493.47;;;-5.43;100.00
54038;BME280;39954;48.844;9.726;2023-04-05T02:33:35;96493.47;;;-5.43;100.00
54038;BME280;39954;48.844;9.726;2023-04-05T02:34:37;96491.75;;;-5.44;100.00
54038;BME280;39954;48.844;9.726;2023-04-05T02:35:42;96494.28;;;-5.44;100.00
54038;BME280;39954;48.844;9.726;2023-04-05T02:36:45;96496.84;;;-5.43;100.00
54038;BME280;39954;48.844;9.726;2023-04-05T02:37:50;96487.53;;;-5.44;100.00
54038;BME280;39954;48.844;9.726;2023-04-05T02:38:52;96493.50;;;-5.40;100.00
54038;BME280;39954;48.844;9.726;2023-04-05T02:39:57;96489.31;;;-5.35;100.00
54038;BME280;39954;48.844;9.726;2023-04-05T02:40:59;96490.19;;;-5.33;100.00
54038;BME280;39954;48.844;9.726;2023-04-05T02:42:04;96486.00;;;-5.29;100.00
54038;BME280;39954;48.844;9.726;2023-04-05T02:43:06;96489.41;;;-5.29;100.00
54038;BME280;39954;48.844;9.726;2023-04-05T02:44:11;96486.03;;;-5.28;100.00
54038;BME280;39954;48.844;9.726;2023-04-05T02:45:14;96482.66;;;-5.27;100.00
54038;BME280;39954;48.844;9.726;2023-04-05T02:46:18;96487.72;;;-5.27;100.00
54038;BME280;39954;48.844;9.726;2023-04-05T02:47:23;96491.09;;;-5.28;100.00
54038;BME280;39954;48.844;9.726;2023-04-05T02:48:28;96478.44;;;-5.28;100.00
54038;BME280;39954;48.844;9.726;2023-04-05T02:49:30;96481.78;;;-5.32;100.00
54038;BME280;39954;48.844;9.726;2023-04-05T02:50:34;96481.72;;;-5.35;100.00
54038;BME280;39954;48.844;9.726;2023-04-05T02:51:36;96480.06;;;-5.34;100.00
54038;BME280;39954;48.844;9.726;2023-04-05T02:52:41;96475.78;;;-5.40;100.00
54038;BME280;39954;48.844;9.726;2023-04-05T02:53:43;96480.88;;;-5.37;100.00
54038;BME280;39954;48.844;9.726;2023-04-05T02:54:48;96472.41;;;-5.39;100.00
54038;BME280;39954;48.844;9.726;2023-04-05T02:55:51;96478.31;;;-5.38;100.00
54038;BME280;39954;48.844;9.726;2023-04-05T02:56:57;96474.06;;;-5.41;100.00
54038;BME280;39954;48.844;9.726;2023-04-05T02:58:03;96477.44;;;-5.42;100.00
54038;BME280;39954;48.844;9.726;2023-04-05T02:59:07;96471.53;;;-5.43;100.00
54038;BME280;39954;48.844;9.726;2023-04-05T03:00:10;96472.38;;;-5.41;100.00
54038;BME280;39954;48.844;9.726;2023-04-05T03:01:15;96478.31;;;-5.38;100.00
54038;BME280;39954;48.844;9.726;2023-04-05T03:02:18;96472.44;;;-5.37;100.00
54038;BME280;39954;48.844;9.726;2023-04-05T03:03:26;96471.59;;;-5.36;100.00
54038;BME280;39954;48.844;9.726;2023-04-05T03:04:29;96474.09;;;-5.38;100.00
54038;BME280;39954;48.844;9.726;2023-04-05T03:05:35;96472.38;;;-5.42;100.00
54038;BME280;39954;48.844;9.726;2023-04-05T03:06:37;96474.06;;;-5.41;100.00
54038;BME280;39954;48.844;9.726;2023-04-05T03:07:49;96472.38;;;-5.42;100.00
54038;BME280;39954;48.844;9.726;2023-04-05T03:08:52;96466.47;;;-5.43;100.00
54038;BME280;39954;48.844;9.726;2023-04-05T03:09:57;96475.78;;;-5.40;100.00
54038;BME280;39954;48.844;9.726;2023-04-05T03:11:00;96470.72;;;-5.40;100.00
54038;BME280;39954;48.844;9.726;2023-04-05T03:12:04;96469.00;;;-5.41;100.00
54038;BME280;39954;48.844;9.726;2023-04-05T03:13:06;96475.81;;;-5.37;100.00
54038;BME280;39954;48.844;9.726;2023-04-05T03:14:11;96468.19;;;-5.38;100.00
54038;BME280;39954;48.844;9.726;2023-04-05T03:15:13;96466.47;;;-5.41;100.00
54038;BME280;39954;48.844;9.726;2023-04-05T03:16:18;96462.22;;;-5.42;100.00
54038;BME280;39954;48.844;9.726;2023-04-05T03:17:20;96464.72;;;-5.44;100.00
54038;BME280;39954;48.844;9.726;2023-04-05T03:18:28;96460.53;;;-5.43;100.00
54038;BME280;39954;48.844;9.726;2023-04-05T03:19:30;96472.34;;;-5.45;100.00
54038;BME280;39954;48.844;9.726;2023-04-05T03:20:36;96468.97;;;-5.44;100.00
54038;BME280;39954;48.844;9.726;2023-04-05T03:21:40;96468.13;;;-5.45;100.00
54038;BME280;39954;48.844;9.726;2023-04-05T03:22:47;96463.88;;;-5.46;100.00
54038;BME280;39954;48.844;9.726;2023-04-05T03:23:49;96465.53;;;-5.46;100.00
54038;BME280;39954;48.844;9.726;2023-04-05T03:24:53;96462.13;;;-5.51;100.00
54038;BME280;39954;48.844;9.726;2023-04-05T03:25:58;96468.03;;;-5.51;100.00
54038;BME280;39954;48.844;9.726;2023-04-05T03:27:03;96461.19;;;-5.58;100.00
54038;BME280;39954;48.844;9.726;2023-04-05T03:28:06;96459.50;;;-5.59;100.00
54038;BME280;39954;48.844;9.726;2023-04-05T03:29:12;96467.94;;;-5.58;100.00
54038;BME280;39954;48.844;9.726;2023-04-05T03:30:14;96462.81;;;-5.63;100.00
54038;BME280;39954;48.844;9.726;2023-04-05T03:31:18;96461.13;;;-5.64;100.00
54038;BME280;39954;48.844;9.726;2023-04-05T03:32:21;96458.53;;;-5.69;100.00
54038;BME280;39954;48.844;9.726;2023-04-05T03:33:28;96464.41;;;-5.73;100.00
54038;BME280;39954;48.844;9.726;2023-04-05T03:34:30;96467.66;;;-5.80;100.00
54038;BME280;39954;48.844;9.726;2023-04-05T03:35:35;96470.16;;;-5.83;100.00
54038;BME280;39954;48.844;9.726;2023-04-05T03:36:37;96460.06;;;-5.80;100.00
54038;BME280;39954;48.844;9.726;2023-04-05T03:37:45;96464.28;;;-5.82;100.00
54038;BME280;39954;48.844;9.726;2023-04-05T03:38:47;96460.00;;;-5.86;100.00
54038;BME280;39954;48.844;9.726;2023-04-05T03:39:52;96466.72;;;-5.88;100.00
54038;BME280;39954;48.844;9.726;2023-04-05T03:40:54;96463.38;;;-5.87;100.00
54038;BME280;39954;48.844;9.726;2023-04-05T03:41:59;96470.91;;;-5.92;100.00
54038;BME280;39954;48.844;9.726;2023-04-05T03:43:02;96467.47;;;-5.98;100.00
54038;BME280;39954;48.844;9.726;2023-04-05T03:44:07;96471.66;;;-6.00;100.00
54038;BME280;39954;48.844;9.726;2023-04-05T03:45:10;96464.94;;;-5.98;100.00
54038;BME280;39954;48.844;9.726;2023-04-05T03:46:15;96469.16;;;-5.99;100.00
54038;BME280;39954;48.844;9.726;2023-04-05T03:47:19;96458.25;;;-5.96;100.00
54038;BME280;39954;48.844;9.726;2023-04-05T03:48:21;96454.88;;;-5.95;100.00
54038;BME280;39954;48.844;9.726;2023-04-05T03:49:30;96455.75;;;-5.90;100.00
54038;BME280;39954;48.844;9.726;2023-04-05T03:50:32;96457.47;;;-5.86;100.00
54038;BME280;39954;48.844;9.726;2023-04-05T03:51:36;96460.03;;;-5.83;100.00
54038;BME280;39954;48.844;9.726;2023-04-05T03:52:39;96459.22;;;-5.80;100.00
54038;BME280;39954;48.844;9.726;2023-04-05T03:53:43;96459.19;;;-5.83;100.00
54038;BME280;39954;48.844;9.726;2023-04-05T03:54:45;96454.06;;;-5.88;100.00
54038;BME280;39954;48.844;9.726;2023-04-05T03:55:50;96463.34;;;-5.90;100.00
54038;BME280;39954;48.844;9.726;2023-04-05T03:56:55;96449.84;;;-5.89;100.00
54038;BME280;39954;48.844;9.726;2023-04-05T03:57:59;96459.97;;;-5.91;100.00
54038;BME280;39954;48.844;9.726;2023-04-05T03:59:02;96461.63;;;-5.91;100.00
54038;BME280;39954;48.844;9.726;2023-04-05T04:00:08;96466.69;;;-5.91;100.00
54038;BME280;39954;48.844;9.726;2023-04-05T04:01:15;96459.13;;;-5.90;100.00
54038;BME280;39954;48.844;9.726;2023-04-05T04:02:19;96465.03;;;-5.89;100.00
54038;BME280;39954;48.844;9.726;2023-04-05T04:03:22;96463.34;;;-5.90;100.00
54038;BME280;39954;48.844;9.726;2023-04-05T04:04:26;96461.63;;;-5.91;100.00
54038;BME280;39954;48.844;9.726;2023-04-05T04:05:31;96455.72;;;-5.95;100.00
54038;BME280;39954;48.844;9.726;2023-04-05T04:06:40;96459.97;;;-5.89;100.00
54038;BME280;39954;48.844;9.726;2023-04-05T04:07:44;96470.09;;;-5.89;100.00
54038;BME280;39954;48.844;9.726;2023-04-05T04:08:47;96459.13;;;-5.88;100.00
54038;BME280;39954;48.844;9.726;2023-04-05T04:09:52;96460.84;;;-5.86;100.00
54038;BME280;39954;48.844;9.726;2023-04-05T04:10:57;96468.44;;;-5.87;100.00
54038;BME280;39954;48.844;9.726;2023-04-05T04:12:02;96468.41;;;-5.89;100.00
54038;BME280;39954;48.844;9.726;2023-04-05T04:13:04;96466.69;;;-5.93;100.00
54038;BME280;39954;48.844;9.726;2023-04-05T04:14:09;96467.47;;;-5.97;100.00
54038;BME280;39954;48.844;9.726;2023-04-05T04:15:11;96469.16;;;-5.99;100.00
54038;BME280;39954;48.844;9.726;2023-04-05T04:16:16;96469.97;;;-6.01;100.00
54038;BME280;39954;48.844;9.726;2023-04-05T04:17:25;96469.97;;;-6.01;100.00
54038;BME280;39954;48.844;9.726;2023-04-05T04:18:30;96469.13;;;-6.02;100.00
54038;BME280;39954;48.844;9.726;2023-04-05T04:19:32;96465.72;;;-6.02;100.00
54038;BME280;39954;48.844;9.726;2023-04-05T04:20:39;96463.13;;;-6.09;100.00
54038;BME280;39954;48.844;9.726;2023-04-05T04:21:41;96465.63;;;-6.10;100.00
54038;BME280;39954;48.844;9.726;2023-04-05T04:22:49;96463.94;;;-6.10;100.00
54038;BME280;39954;48.844;9.726;2023-04-05T04:23:54;96463.97;;;-6.08;100.00
54038;BME280;39954;48.844;9.726;2023-04-05T04:25:01;96465.66;;;-6.09;100.00
54038;BME280;39954;48.844;9.726;2023-04-05T04:26:05;96469.06;;;-6.06;100.00
54038;BME280;39954;48.844;9.726;2023-04-05T04:27:11;96469.06;;;-6.05;100.00
54038;BME280;39954;48.844;9.726;2023-04-05T04:28:13;96470.78;;;-6.04;100.00
54038;BME280;39954;48.844;9.726;2023-04-05T04:29:20;96467.38;;;-6.06;100.00
54038;BME280;39954;48.844;9.726;2023-04-05T04:30:31;96471.59;;;-6.05;100.00
54038;BME280;39954;48.844;9.726;2023-04-05T04:31:36;96471.66;;;-6.00;100.00
54038;BME280;39954;48.844;9.726;2023-04-05T04:32:40;96475.91;;;-5.98;100.00
54038;BME280;39954;48.844;9.726;2023-04-05T04:33:54;96469.19;;;-5.96;100.00
54038;BME280;39954;48.844;9.726;2023-04-05T04:34:59;96467.53;;;-5.95;100.00
54038;BME280;39954;48.844;9.726;2023-04-05T04:36:08;96470.88;;;-5.96;100.00
54038;BME280;39954;48.844;9.726;2023-04-05T04:37:14;96477.59;;;-5.98;100.00
54038;BME280;39954;48.844;9.726;2023-04-05T04:38:19;96464.91;;;-6.01;100.00
54038;BME280;39954;48.844;9.726;2023-04-05T04:39:27;96465.72;;;-6.02;100.00
54038;BME280;39954;48.844;9.726;2023-04-05T04:40:33;96467.38;;;-6.06;100.00
54038;BME280;39954;48.844;9.726;2023-04-05T04:41:44;96474.97;;;-6.07;100.00
54038;BME280;39954;48.844;9.726;2023-04-05T04:42:47;96470.66;;;-6.12;100.00
54038;BME280;39954;48.844;9.726;2023-04-05T04:43:52;96474.03;;;-6.13;100.00
54038;BME280;39954;48.844;9.726;2023-04-05T04:44:55;96474.03;;;-6.13;100.00
54038;BME280;39954;48.844;9.726;2023-04-05T04:46:03;96473.16;;;-6.15;100.00
54038;BME280;39954;48.844;9.726;2023-04-05T04:47:11;96475.69;;;-6.15;100.00
54038;BME280;39954;48.844;9.726;2023-04-05T04:48:18;96479.88;;;-6.17;100.00
54038;BME280;39954;48.844;9.726;2023-04-05T04:49:20;96471.44;;;-6.17;100.00
54038;BME280;39954;48.844;9.726;2023-04-05T04:50:24;96470.53;;;-6.19;100.00
54038;BME280;39954;48.844;9.726;2023-04-05T04:51:29;96474.75;;;-6.20;100.00
54038;BME280;39954;48.844;9.726;2023-04-05T04:52:34;96473.13;;;-6.18;100.00
54038;BME280;39954;48.844;9.726;2023-04-05T04:53:36;96468.91;;;-6.17;100.00
54038;BME280;39954;48.844;9.726;2023-04-05T04:54:41;96471.44;;;-6.17;100.00
54038;BME280;39954;48.844;9.726;2023-04-05T04:55:43;96475.66;;;-6.16;100.00
54038;BME280;39954;48.844;9.726;2023-04-05T04:56:50;96473.19;;;-6.12;100.00
54038;BME280;39954;48.844;9.726;2023-04-05T04:57:53;96467.28;;;-6.11;100.00
54038;BME280;39954;48.844;9.726;2023-04-05T04:58:58;96471.53;;;-6.10;100.00
54038;BME280;39954;48.844;9.726;2023-04-05T05:00:00;96473.22;;;-6.09;100.00
54038;BME280;39954;48.844;9.726;2023-04-05T05:01:08;96473.28;;;-6.07;100.00
54038;BME280;39954;48.844;9.726;2023-04-05T05:02:10;96472.34;;;-6.11;100.00
54038;BME280;39954;48.844;9.726;2023-04-05T05:03:15;96476.59;;;-6.10;100.00
54038;BME280;39954;48.844;9.726;2023-04-05T05:04:18;96474.88;;;-6.11;100.00
54038;BME280;39954;48.844;9.726;2023-04-05T05:05:23;96474.88;;;-6.11;100.00
54038;BME280;39954;48.844;9.726;2023-04-05T05:06:29;96479.09;;;-6.13;100.00
54038;BME280;39954;48.844;9.726;2023-04-05T05:07:34;96474.00;;;-6.14;100.00
54038;BME280;39954;48.844;9.726;2023-04-05T05:08:36;96473.16;;;-6.15;100.00
54038;BME280;39954;48.844;9.726;2023-04-05T05:09:41;96479.91;;;-6.14;100.00
54038;BME280;39954;48.844;9.726;2023-04-05T05:10:44;96476.59;;;-6.10;100.00
54038;BME280;39954;48.844;9.726;2023-04-05T05:11:48;96476.59;;;-6.10;100.00
54038;BME280;39954;48.844;9.726;2023-04-05T05:12:51;96469.91;;;-6.07;100.00
54038;BME280;39954;48.844;9.726;2023-04-05T05:13:55;96473.28;;;-6.05;100.00
54038;BME280;39954;48.844;9.726;2023-04-05T05:14:57;96469.97;;;-6.01;100.00
54038;BME280;39954;48.844;9.726;2023-04-05T05:16:02;96475.03;;;-6.01;100.00
54038;BME280;39954;48.844;9.726;2023-04-05T05:17:06;96468.28;;;-5.99;100.00
54038;BME280;39954;48.844;9.726;2023-04-05T05:18:11;96469.16;;;-5.97;100.00
54038;BME280;39954;48.844;9.726;2023-04-05T05:19:17;96465.84;;;-5.95;100.00
54038;BME280;39954;48.844;9.726;2023-04-05T05:20:21;96473.50;;;-5.87;100.00
54038;BME280;39954;48.844;9.726;2023-04-05T05:21:23;96463.41;;;-5.84;100.00
54038;BME280;39954;48.844;9.726;2023-04-05T05:22:31;96460.88;;;-5.84;100.00
54038;BME280;39954;48.844;9.726;2023-04-05T05:23:33;96466.81;;;-5.80;100.00
54038;BME280;39954;48.844;9.726;2023-04-05T05:24:37;96458.41;;;-5.79;100.00
54038;BME280;39954;48.844;9.726;2023-04-05T05:25:39;96461.84;;;-5.76;100.00
54038;BME280;39954;48.844;9.726;2023-04-05T05:26:44;96466.09;;;-5.73;100.00
54038;BME280;39954;48.844;9.726;2023-04-05T05:27:47;96466.94;;;-5.73;100.00
54038;BME280;39954;48.844;9.726;2023-04-05T05:28:52;96472.03;;;-5.70;100.00
54038;BME280;39954;48.844;9.726;2023-04-05T05:29:54;96469.53;;;-5.67;100.00
54038;BME280;39954;48.844;9.726;2023-04-05T05:30:59;96473.78;;;-5.64;100.00
54038;BME280;39954;48.844;9.726;2023-04-05T05:32:01;96479.72;;;-5.60;100.00
54038;BME280;39954;48.844;9.726;2023-04-05T05:33:06;96472.16;;;-5.57;100.00
54038;BME280;39954;48.844;9.726;2023-04-05T05:34:08;96474.81;;;-5.50;100.00
54038;BME280;39954;48.844;9.726;2023-04-05T05:35:13;96473.16;;;-5.48;100.00
54038;BME280;39954;48.844;9.726;2023-04-05T05:36:15;96468.97;;;-5.44;100.00
54038;BME280;39954;48.844;9.726;2023-04-05T05:37:21;96471.50;;;-5.44;100.00
54038;BME280;39954;48.844;9.726;2023-04-05T05:38:32;96465.66;;;-5.40;100.00
54038;BME280;39954;48.844;9.726;2023-04-05T05:39:37;96461.41;;;-5.38;100.00
54038;BME280;39954;48.844;9.726;2023-04-05T05:40:39;96464.84;;;-5.33;100.00
54038;BME280;39954;48.844;9.726;2023-04-05T05:41:44;96464.03;;;-5.32;100.00
54038;BME280;39954;48.844;9.726;2023-04-05T05:42:46;96470.00;;;-5.28;100.00
54038;BME280;39954;48.844;9.726;2023-04-05T05:43:51;96466.63;;;-5.26;100.00